Time;durP1;ratioP1;P1;durP2;ratioP2;P2;SDS_P1;SDS_P2;PMS_P1;PMS_P2;Temp;Humidity;BMP_temperature;BMP_pressure;BME280_temperature;BME280_humidity;BME280_pressure;Samples;Min_cycle;Max_cycle;Signal;HPM_P1;HPM_P2
2022/07/03 00:01:50;;;;;;;5.97;4.10;;;;;;;;;;4959313;29;20055;-79
2022/07/03 00:04:35;;;;;;;8.55;4.32;;;;;;;;;;4959528;29;20043;-79
2022/07/03 00:07:22;;;;;;;8.55;5.05;;;;;;;;;;4959300;29;20039;-79
2022/07/03 00:10:08;;;;;;;8.23;3.78;;;;;;;;;;4959026;29;20043;-79
2022/07/03 00:12:53;;;;;;;5.85;3.90;;;;;;;;;;4959093;29;20047;-79
2022/07/03 00:15:39;;;;;;;10.57;4.10;;;;;;;;;;4959125;29;20058;-78
2022/07/03 00:18:24;;;;;;;8.88;4.00;;;;;;;;;;4958948;29;20493;-79
2022/07/03 00:21:12;;;;;;;8.32;4.25;;;;;;;;;;4958930;29;20421;-79
2022/07/03 00:24:07;;;;;;;7.35;3.90;;;;;;;;;;4959042;29;20043;-79
2022/07/03 00:26:53;;;;;;;10.18;4.25;;;;;;;;;;4959482;29;20040;-79
2022/07/03 00:29:42;;;;;;;6.97;3.78;;;;;;;;;;4959223;29;20047;-77
2022/07/03 00:32:28;;;;;;;5.55;4.20;;;;;;;;;;4958702;29;20043;-79
2022/07/03 00:35:17;;;;;;;8.85;4.00;;;;;;;;;;4958726;29;20043;-79
2022/07/03 00:38:03;;;;;;;8.48;3.80;;;;;;;;;;4958601;29;20035;-79
2022/07/03 00:40:48;;;;;;;7.82;3.50;;;;;;;;;;4959031;29;20051;-79
2022/07/03 00:43:33;;;;;;;8.25;3.38;;;;;;;;;;4958475;29;20043;-79
2022/07/03 00:46:23;;;;;;;6.28;3.50;;;;;;;;;;4958520;29;20477;-79
2022/07/03 00:49:10;;;;;;;8.18;3.17;;;;;;;;;;4958649;29;20039;-79
2022/07/03 00:51:56;;;;;;;6.57;3.25;;;;;;;;;;4958367;29;20047;-79
2022/07/03 00:54:46;;;;;;;5.82;3.20;;;;;;;;;;4958629;29;20039;-79
2022/07/03 00:57:31;;;;;;;7.78;3.60;;;;;;;;;;4958695;29;20481;-79
2022/07/03 01:00:17;;;;;;;6.95;3.03;;;;;;;;;;4964891;28;20047;-77
2022/07/03 01:03:06;;;;;;;6.57;3.70;;;;;;;;;;4958084;29;20051;-80
2022/07/03 01:05:54;;;;;;;8.43;3.65;;;;;;;;;;4958358;29;20043;-79
2022/07/03 01:08:50;;;;;;;7.65;3.50;;;;;;;;;;4957536;29;20051;-80
2022/07/03 01:11:48;;;;;;;6.45;3.33;;;;;;;;;;4958327;29;20393;-79
2022/07/03 01:14:44;;;;;;;11.02;3.70;;;;;;;;;;4958068;29;20043;-80
2022/07/03 01:17:39;;;;;;;6.60;3.53;;;;;;;;;;4965023;28;20039;-80
2022/07/03 01:20:28;;;;;;;6.57;3.35;;;;;;;;;;4957905;29;20488;-79
2022/07/03 01:23:30;;;;;;;4.78;3.28;;;;;;;;;;4958106;29;20051;-80
2022/07/03 01:26:16;;;;;;;7.78;3.40;;;;;;;;;;4957773;29;20055;-80
2022/07/03 01:29:13;;;;;;;4.85;3.10;;;;;;;;;;4958010;29;20043;-80
2022/07/03 01:31:59;;;;;;;9.80;3.35;;;;;;;;;;4957812;29;20489;-79
2022/07/03 01:34:50;;;;;;;7.70;3.60;;;;;;;;;;4957734;29;20216;-78
2022/07/03 01:37:38;;;;;;;8.38;3.58;;;;;;;;;;4958686;29;20043;-78
2022/07/03 01:40:26;;;;;;;4.43;3.20;;;;;;;;;;4957945;29;20047;-78
2022/07/03 01:43:12;;;;;;;6.72;3.28;;;;;;;;;;4957970;29;20059;-78
2022/07/03 01:45:59;;;;;;;5.43;3.40;;;;;;;;;;4958278;29;20035;-78
2022/07/03 01:48:45;;;;;;;6.05;3.80;;;;;;;;;;4957728;29;20047;-78
2022/07/03 01:51:31;;;;;;;6.50;3.50;;;;;;;;;;4957521;29;20043;-78
2022/07/03 01:54:17;;;;;;;9.40;4.13;;;;;;;;;;4957449;29;20405;-78
2022/07/03 01:57:06;;;;;;;13.15;5.47;;;;;;;;;;4957363;29;20477;-78
2022/07/03 01:59:51;;;;;;;7.63;4.38;;;;;;;;;;4957293;29;20047;-79
2022/07/03 02:03:01;;;;;;;10.90;4.20;;;;;;;;;;4957348;29;20047;-78
2022/07/03 02:05:47;;;;;;;8.55;4.28;;;;;;;;;;4957587;29;20046;-79
2022/07/03 02:08:57;;;;;;;13.60;8.18;;;;;;;;;;4956950;29;20035;-78
2022/07/03 02:11:44;;;;;;;12.32;4.63;;;;;;;;;;4957054;29;20047;-79
2022/07/03 02:14:35;;;;;;;10.02;4.38;;;;;;;;;;4957000;29;20043;-79
2022/07/03 02:17:21;;;;;;;8.68;4.07;;;;;;;;;;4956969;29;20489;-79
2022/07/03 02:20:09;;;;;;;6.88;4.10;;;;;;;;;;4956687;29;20393;-79
2022/07/03 02:23:00;;;;;;;8.70;4.32;;;;;;;;;;4956415;29;20051;-79
2022/07/03 02:25:48;;;;;;;9.82;4.65;;;;;;;;;;4956881;29;20039;-79
2022/07/03 02:28:46;;;;;;;6.80;3.97;;;;;;;;;;4956750;29;20046;-78
2022/07/03 02:31:42;;;;;;;6.75;3.80;;;;;;;;;;4956627;29;20039;-79
2022/07/03 02:34:29;;;;;;;6.50;3.90;;;;;;;;;;4956632;29;20043;-78
2022/07/03 02:37:19;;;;;;;12.30;3.90;;;;;;;;;;4956609;29;20043;-78
2022/07/03 02:40:09;;;;;;;9.27;4.30;;;;;;;;;;4956688;29;20043;-79
2022/07/03 02:43:01;;;;;;;9.55;4.30;;;;;;;;;;4956225;29;20051;-79
2022/07/03 02:49:19;;;;;;;7.75;4.55;;;;;;;;;;4919604;29;20477;-79
2022/07/03 02:52:30;;;;;;;6.25;4.38;;;;;;;;;;4956350;29;20392;-79
2022/07/03 02:55:38;;;;;;;15.00;4.82;;;;;;;;;;4956185;29;20039;-79
2022/07/03 02:58:49;;;;;;;8.88;4.70;;;;;;;;;;4956419;29;20047;-79
2022/07/03 03:01:57;;;;;;;7.80;4.15;;;;;;;;;;4956622;29;20047;-79
2022/07/03 03:04:51;;;;;;;7.85;4.10;;;;;;;;;;4956158;29;20051;-79
2022/07/03 03:07:40;;;;;;;9.25;3.95;;;;;;;;;;4956113;29;20044;-80
2022/07/03 03:10:25;;;;;;;6.47;4.07;;;;;;;;;;4956180;29;20047;-79
2022/07/03 03:13:13;;;;;;;6.15;4.15;;;;;;;;;;4955930;29;20039;-79
2022/07/03 03:16:10;;;;;;;8.15;4.47;;;;;;;;;;4956146;29;20393;-79
2022/07/03 03:18:55;;;;;;;8.85;4.28;;;;;;;;;;4956000;29;20043;-79
2022/07/03 03:21:52;;;;;;;8.52;4.63;;;;;;;;;;4955954;29;20051;-79
2022/07/03 03:24:37;;;;;;;12.10;4.60;;;;;;;;;;4955892;29;20043;-79
2022/07/03 03:27:23;;;;;;;8.25;4.47;;;;;;;;;;4955706;29;20047;-78
2022/07/03 03:30:09;;;;;;;8.27;4.75;;;;;;;;;;4955315;28;20031;-78
2022/07/03 03:32:55;;;;;;;15.07;4.55;;;;;;;;;;4956101;29;20489;-78
2022/07/03 03:35:41;;;;;;;9.50;4.60;;;;;;;;;;4955788;29;20043;-79
2022/07/03 03:38:26;;;;;;;10.95;4.60;;;;;;;;;;4955948;29;20400;-78
2022/07/03 03:41:12;;;;;;;8.95;4.70;;;;;;;;;;4955605;28;20051;-78
2022/07/03 03:43:57;;;;;;;8.50;4.40;;;;;;;;;;4955236;29;20051;-79
2022/07/03 03:46:43;;;;;;;9.25;4.63;;;;;;;;;;4955600;29;20043;-79
2022/07/03 03:49:29;;;;;;;8.05;4.40;;;;;;;;;;4955714;29;20047;-79
2022/07/03 03:52:14;;;;;;;11.02;4.28;;;;;;;;;;4955608;29;20051;-78
2022/07/03 03:54:59;;;;;;;8.77;4.40;;;;;;;;;;4961860;29;20047;-78
2022/07/03 03:57:45;;;;;;;9.98;4.20;;;;;;;;;;4955490;29;20497;-78
2022/07/03 04:00:31;;;;;;;6.72;3.60;;;;;;;;;;4955351;29;20051;-78
2022/07/03 04:03:16;;;;;;;9.57;4.10;;;;;;;;;;4941021;29;20044;-79
2022/07/03 04:06:03;;;;;;;7.18;3.90;;;;;;;;;;4955605;29;20047;-79
2022/07/03 04:08:48;;;;;;;8.70;4.55;;;;;;;;;;4955268;29;20486;-78
2022/07/03 04:11:34;;;;;;;9.32;4.22;;;;;;;;;;4955448;29;20043;-78
2022/07/03 04:14:20;;;;;;;7.53;4.40;;;;;;;;;;4955411;29;20440;-78
2022/07/03 04:17:05;;;;;;;9.52;4.45;;;;;;;;;;4955781;29;20051;-78
2022/07/03 04:19:51;;;;;;;9.40;3.95;;;;;;;;;;4954856;29;20058;-78
2022/07/03 04:22:36;;;;;;;8.30;4.32;;;;;;;;;;4955455;29;20047;-79
2022/07/03 04:25:22;;;;;;;7.97;4.13;;;;;;;;;;4955174;29;20043;-79
2022/07/03 04:28:08;;;;;;;8.60;4.20;;;;;;;;;;4955377;29;20043;-80
2022/07/03 04:30:54;;;;;;;7.30;4.28;;;;;;;;;;4955493;29;20377;-78
2022/07/03 04:33:40;;;;;;;6.95;4.18;;;;;;;;;;4955609;29;20043;-79
2022/07/03 04:36:25;;;;;;;8.13;4.20;;;;;;;;;;4955092;29;20051;-79
2022/07/03 04:39:11;;;;;;;5.72;3.90;;;;;;;;;;4955371;29;20047;-78
2022/07/03 04:41:57;;;;;;;8.85;4.28;;;;;;;;;;4956632;28;20039;-80
2022/07/03 04:44:42;;;;;;;7.50;4.50;;;;;;;;;;4958916;29;20043;-80
2022/07/03 04:47:28;;;;;;;6.65;4.25;;;;;;;;;;4958633;29;20413;-81
2022/07/03 04:50:13;;;;;;;8.52;4.15;;;;;;;;;;4958486;29;20481;-80
2022/07/03 04:52:58;;;;;;;11.55;4.10;;;;;;;;;;4958650;29;20031;-80
2022/07/03 04:55:43;;;;;;;9.88;4.25;;;;;;;;;;4958194;29;20400;-79
2022/07/03 04:58:29;;;;;;;8.10;4.25;;;;;;;;;;4964677;28;20043;-80
2022/07/03 05:01:14;;;;;;;5.10;3.72;;;;;;;;;;4958092;29;20051;-79
2022/07/03 05:03:59;;;;;;;8.80;4.70;;;;;;;;;;4958129;29;20039;-79
2022/07/03 05:06:45;;;;;;;7.13;4.55;;;;;;;;;;4958147;29;20055;-78
2022/07/03 05:09:31;;;;;;;9.38;4.85;;;;;;;;;;4958089;29;20051;-78
2022/07/03 05:12:16;;;;;;;11.13;5.15;;;;;;;;;;4964582;28;20054;-79
2022/07/03 05:15:02;;;;;;;11.90;4.80;;;;;;;;;;4958066;29;20512;-80
2022/07/03 05:17:47;;;;;;;8.90;5.00;;;;;;;;;;4957960;29;20036;-79
2022/07/03 05:20:33;;;;;;;8.45;4.97;;;;;;;;;;4958171;29;20039;-80
2022/07/03 05:23:18;;;;;;;15.60;5.22;;;;;;;;;;4958093;29;20473;-79
2022/07/03 05:26:04;;;;;;;13.98;5.03;;;;;;;;;;4957895;29;20401;-78
2022/07/03 05:28:50;;;;;;;9.55;4.72;;;;;;;;;;4958052;29;20047;-79
2022/07/03 05:31:35;;;;;;;9.50;4.88;;;;;;;;;;4958046;29;20043;-79
2022/07/03 05:34:20;;;;;;;10.30;4.72;;;;;;;;;;4957996;29;20393;-79
2022/07/03 05:37:06;;;;;;;6.65;4.55;;;;;;;;;;4957840;29;20401;-80
2022/07/03 05:39:52;;;;;;;6.25;3.80;;;;;;;;;;4957741;29;20039;-78
2022/07/03 05:42:37;;;;;;;6.85;4.43;;;;;;;;;;4957210;29;20043;-79
2022/07/03 05:45:23;;;;;;;7.22;4.18;;;;;;;;;;4957340;29;20405;-79
2022/07/03 05:48:08;;;;;;;10.90;5.05;;;;;;;;;;4957446;29;20039;-79
2022/07/03 05:50:54;;;;;;;6.85;3.90;;;;;;;;;;4957912;29;20397;-80
2022/07/03 05:53:41;;;;;;;7.95;4.13;;;;;;;;;;4956819;28;20039;-79
2022/07/03 05:56:26;;;;;;;8.65;4.15;;;;;;;;;;4957509;29;20047;-79
2022/07/03 05:59:12;;;;;;;8.35;4.13;;;;;;;;;;4956892;29;20397;-79
2022/07/03 06:01:57;;;;;;;10.30;4.55;;;;;;;;;;4957382;29;20043;-79
2022/07/03 06:04:43;;;;;;;7.40;4.25;;;;;;;;;;4957293;29;20035;-79
2022/07/03 06:07:29;;;;;;;10.25;4.40;;;;;;;;;;4958811;29;20058;-80
2022/07/03 06:10:14;;;;;;;8.15;4.20;;;;;;;;;;4957295;29;20046;-77
2022/07/03 06:13:00;;;;;;;6.57;3.80;;;;;;;;;;4957274;29;20039;-79
2022/07/03 06:15:46;;;;;;;9.13;4.55;;;;;;;;;;4955768;29;20066;-79
2022/07/03 06:18:31;;;;;;;13.10;5.10;;;;;;;;;;4955904;29;20043;-79
2022/07/03 06:21:16;;;;;;;9.95;4.60;;;;;;;;;;4957179;29;20043;-78
2022/07/03 06:24:02;;;;;;;9.18;4.25;;;;;;;;;;4955426;29;20043;-79
2022/07/03 06:26:48;;;;;;;8.27;4.47;;;;;;;;;;4963095;28;20047;-81
2022/07/03 06:29:33;;;;;;;7.45;4.45;;;;;;;;;;4957043;29;20050;-81
2022/07/03 06:32:19;;;;;;;9.43;4.82;;;;;;;;;;4956892;29;20043;-80
2022/07/03 06:35:05;;;;;;;10.57;4.80;;;;;;;;;;4942024;29;20146;-79
2022/07/03 06:37:50;;;;;;;12.80;5.03;;;;;;;;;;4956674;29;20043;-81
2022/07/03 06:40:36;;;;;;;8.27;5.15;;;;;;;;;;4956613;29;20051;-80
2022/07/03 06:43:21;;;;;;;10.55;4.38;;;;;;;;;;4955975;29;20489;-81
2022/07/03 06:46:07;;;;;;;10.70;5.50;;;;;;;;;;4942083;29;20047;-82
2022/07/03 06:48:51;;;;;;;10.05;5.13;;;;;;;;;;4956130;29;20047;-80
2022/07/03 06:51:37;;;;;;;9.88;5.45;;;;;;;;;;4956422;29;20043;-78
2022/07/03 06:54:22;;;;;;;14.77;5.85;;;;;;;;;;4961746;28;20043;-80
2022/07/03 06:57:07;;;;;;;14.05;6.10;;;;;;;;;;4955900;28;20047;-82
2022/07/03 06:59:53;;;;;;;9.80;5.20;;;;;;;;;;4956320;29;20055;-81
2022/07/03 07:02:38;;;;;;;9.18;5.07;;;;;;;;;;4962364;28;20401;-81
2022/07/03 07:05:24;;;;;;;12.55;5.30;;;;;;;;;;4961566;28;20047;-82
2022/07/03 07:08:09;;;;;;;17.88;6.28;;;;;;;;;;4956364;29;20047;-82
2022/07/03 07:10:55;;;;;;;8.73;4.50;;;;;;;;;;4962320;28;20047;-82
2022/07/03 07:13:41;;;;;;;7.93;4.60;;;;;;;;;;4955883;29;20047;-81
2022/07/03 07:16:29;;;;;;;12.63;5.13;;;;;;;;;;4955851;29;20043;-82
2022/07/03 07:19:14;;;;;;;14.85;5.50;;;;;;;;;;4941547;29;20043;-82
2022/07/03 07:22:01;;;;;;;14.75;5.72;;;;;;;;;;4955558;29;20480;-81
2022/07/03 07:24:46;;;;;;;12.82;6.38;;;;;;;;;;4955271;29;20485;-81
2022/07/03 07:27:32;;;;;;;8.40;4.97;;;;;;;;;;4955902;29;20051;-80
2022/07/03 07:30:17;;;;;;;10.60;5.40;;;;;;;;;;4955625;29;20046;-82
2022/07/03 07:33:02;;;;;;;12.70;5.07;;;;;;;;;;4955670;29;20040;-82
2022/07/03 07:35:48;;;;;;;10.85;4.78;;;;;;;;;;4955563;29;20051;-82
2022/07/03 07:38:34;;;;;;;10.13;4.22;;;;;;;;;;4955632;29;20047;-81
2022/07/03 07:41:20;;;;;;;8.00;4.07;;;;;;;;;;4955662;29;20051;-82
2022/07/03 07:44:05;;;;;;;19.30;11.55;;;;;;;;;;4928133;29;20047;-81
2022/07/03 07:46:51;;;;;;;9.55;4.10;;;;;;;;;;4955541;29;20047;-81
2022/07/03 07:49:36;;;;;;;13.82;4.53;;;;;;;;;;4955496;29;20493;-82
2022/07/03 07:52:24;;;;;;;11.85;4.20;;;;;;;;;;4955368;29;20039;-83
2022/07/03 07:55:10;;;;;;;10.98;4.30;;;;;;;;;;4955400;29;20043;-82
2022/07/03 07:57:55;;;;;;;9.27;3.78;;;;;;;;;;4940712;29;20047;-83
2022/07/03 08:05:35;;;;;;;9.30;3.58;;;;;;;;;;4955280;29;20039;-81
2022/07/03 08:06:50;;;;;;;11.25;4.05;;;;;;;;;;4946713;29;20047;-83
2022/07/03 08:09:35;;;;;;;8.68;3.65;;;;;;;;;;4955083;29;20047;-82
2022/07/03 08:12:21;;;;;;;6.57;3.83;;;;;;;;;;4955298;29;20397;-82
2022/07/03 08:15:07;;;;;;;7.82;3.72;;;;;;;;;;4955176;29;20051;-81
2022/07/03 08:17:52;;;;;;;8.60;4.03;;;;;;;;;;4958348;28;20404;-83
2022/07/03 08:20:38;;;;;;;8.38;3.92;;;;;;;;;;4958779;29;20055;-80
2022/07/03 08:23:23;;;;;;;10.95;4.20;;;;;;;;;;4958622;29;20489;-83
2022/07/03 08:26:09;;;;;;;7.65;3.92;;;;;;;;;;4958942;29;20055;-82
2022/07/03 08:28:54;;;;;;;24.42;4.22;;;;;;;;;;4958615;29;20043;-81
2022/07/03 08:31:40;;;;;;;8.23;4.10;;;;;;;;;;4958636;29;20047;-82
2022/07/03 08:34:26;;;;;;;12.27;3.80;;;;;;;;;;4958908;29;20413;-81
2022/07/03 08:37:11;;;;;;;11.40;3.90;;;;;;;;;;4937090;28;20051;-82
2022/07/03 08:39:57;;;;;;;17.13;4.22;;;;;;;;;;4958365;29;20055;-82
2022/07/03 08:42:46;;;;;;;10.35;4.43;;;;;;;;;;4947964;29;20051;-81
2022/07/03 08:45:33;;;;;;;8.50;4.18;;;;;;;;;;4950256;28;20051;-80
2022/07/03 08:48:21;;;;;;;7.97;4.20;;;;;;;;;;4958461;29;20424;-82
2022/07/03 08:51:06;;;;;;;6.85;3.92;;;;;;;;;;4950180;28;20051;-82
2022/07/03 08:53:54;;;;;;;10.52;4.22;;;;;;;;;;4950444;28;20043;-83
2022/07/03 08:56:41;;;;;;;9.75;4.20;;;;;;;;;;4958178;29;20090;-81
2022/07/03 08:59:36;;;;;;;7.40;4.20;;;;;;;;;;4958329;29;20058;-81
2022/07/03 09:02:23;;;;;;;6.80;3.90;;;;;;;;;;4958211;29;20047;-82
2022/07/03 09:05:10;;;;;;;9.65;4.25;;;;;;;;;;4957369;29;20412;-83
2022/07/03 09:07:56;;;;;;;9.38;4.18;;;;;;;;;;4950190;28;20051;-82
2022/07/03 09:10:43;;;;;;;10.98;4.00;;;;;;;;;;4943643;29;20071;-82
2022/07/03 09:13:29;;;;;;;8.60;4.60;;;;;;;;;;4949840;28;20039;-82
2022/07/03 09:16:16;;;;;;;14.82;4.60;;;;;;;;;;4958061;29;20047;-82
2022/07/03 09:19:05;;;;;;;12.73;4.72;;;;;;;;;;4958361;29;20039;-81
2022/07/03 09:21:51;;;;;;;12.93;6.32;;;;;;;;;;4958161;29;20505;-83
2022/07/03 09:24:36;;;;;;;28.17;19.33;;;;;;;;;;4957582;29;20039;-82
2022/07/03 09:27:23;;;;;;;9.93;4.75;;;;;;;;;;4957857;28;20047;-81
2022/07/03 09:30:10;;;;;;;16.65;8.55;;;;;;;;;;4957798;29;20051;-81
2022/07/03 09:32:56;;;;;;;16.95;9.68;;;;;;;;;;4957788;29;20055;-81
2022/07/03 09:35:41;;;;;;;9.50;4.35;;;;;;;;;;4957555;29;20142;-81
2022/07/03 09:38:27;;;;;;;7.97;3.90;;;;;;;;;;4957658;29;20055;-82
2022/07/03 09:41:13;;;;;;;7.45;4.15;;;;;;;;;;4957784;29;20489;-82
2022/07/03 09:43:58;;;;;;;8.68;4.47;;;;;;;;;;4957019;29;20051;-82
2022/07/03 09:46:44;;;;;;;10.43;4.25;;;;;;;;;;4957394;29;20051;-82
2022/07/03 09:49:45;;;;;;;11.05;4.40;;;;;;;;;;4957895;29;20489;-82
2022/07/03 09:52:43;;;;;;;7.78;4.55;;;;;;;;;;4957265;29;20047;-81
2022/07/03 09:55:28;;;;;;;9.00;4.45;;;;;;;;;;4960016;29;20047;-81
2022/07/03 09:58:13;;;;;;;12.93;7.30;;;;;;;;;;4960730;29;20047;-81
2022/07/03 10:01:16;;;;;;;6.68;4.07;;;;;;;;;;4960763;29;20055;-81
2022/07/03 10:04:11;;;;;;;10.52;5.25;;;;;;;;;;4960596;29;20039;-83
2022/07/03 10:06:58;;;;;;;9.80;4.90;;;;;;;;;;4961430;29;20496;-83
2022/07/03 10:09:45;;;;;;;11.65;5.10;;;;;;;;;;4961226;29;20048;-83
2022/07/03 10:12:30;;;;;;;9.68;4.20;;;;;;;;;;4960124;29;20055;-80
2022/07/03 10:15:16;;;;;;;72.30;49.83;;;;;;;;;;4961308;29;20399;-80
2022/07/03 10:18:04;;;;;;;9.93;4.78;;;;;;;;;;4957717;29;20047;-81
2022/07/03 10:20:50;;;;;;;11.23;4.53;;;;;;;;;;4956883;29;20043;-82
2022/07/03 10:23:36;;;;;;;10.40;4.95;;;;;;;;;;4956754;29;20040;-81
2022/07/03 10:26:21;;;;;;;14.43;9.05;;;;;;;;;;4956918;29;20043;-82
2022/07/03 10:29:24;;;;;;;13.77;8.60;;;;;;;;;;4957509;29;20043;-83
2022/07/03 10:32:11;;;;;;;6.85;5.05;;;;;;;;;;4956292;29;20401;-80
2022/07/03 10:34:57;;;;;;;15.07;10.68;;;;;;;;;;4956641;29;20039;-79
2022/07/03 10:37:48;;;;;;;9.85;5.97;;;;;;;;;;4957073;29;20043;-80
2022/07/03 10:46:56;;;;;;;9.50;5.35;;;;;;;;;;4956515;29;20051;-79
2022/07/03 10:50:00;;;;;;;10.95;5.00;;;;;;;;;;4956443;29;20047;-80
2022/07/03 10:52:47;;;;;;;10.10;5.05;;;;;;;;;;4962743;28;20043;-79
2022/07/03 10:56:01;;;;;;;10.57;5.05;;;;;;;;;;4956255;29;20039;-80
2022/07/03 10:58:58;;;;;;;11.13;6.22;;;;;;;;;;4956330;29;20054;-79
2022/07/03 11:01:44;;;;;;;12.55;7.60;;;;;;;;;;4956235;29;20050;-78
2022/07/03 11:07:50;;;;;;;;;;;;;;;;;;4956396;29;20047;-78
2022/07/03 11:10:40;;;;;;;10.63;7.18;;;;;;;;;;4955573;29;20265;-79
2022/07/03 11:13:26;;;;;;;12.35;5.18;;;;;;;;;;4955721;29;20050;-78
2022/07/03 11:16:23;;;;;;;8.90;5.07;;;;;;;;;;4955756;29;20051;-78
2022/07/03 11:19:08;;;;;;;6.95;5.78;;;;;;;;;;4955470;29;20409;-78
2022/07/03 11:22:03;;;;;;;7.47;5.15;;;;;;;;;;4955785;29;20047;-80
2022/07/03 11:24:52;;;;;;;8.25;5.20;;;;;;;;;;4955514;29;20047;-79
2022/07/03 11:27:38;;;;;;;10.18;5.20;;;;;;;;;;4955991;29;20509;-79
2022/07/03 11:30:25;;;;;;;11.02;6.38;;;;;;;;;;4955719;29;20043;-80
2022/07/03 11:33:11;;;;;;;9.52;5.07;;;;;;;;;;4955479;29;20058;-78
2022/07/03 11:35:56;;;;;;;11.63;5.00;;;;;;;;;;4955811;29;20043;-78
2022/07/03 11:39:02;;;;;;;14.00;10.15;;;;;;;;;;4955818;29;20055;-79
2022/07/03 11:41:48;;;;;;;13.52;5.55;;;;;;;;;;4955580;29;20047;-80
2022/07/03 11:44:33;;;;;;;10.13;6.80;;;;;;;;;;4955502;29;20409;-79
2022/07/03 11:47:19;;;;;;;11.57;6.13;;;;;;;;;;4947391;28;20047;-80
2022/07/03 11:50:05;;;;;;;9.13;5.60;;;;;;;;;;4955083;29;20393;-78
2022/07/03 11:52:50;;;;;;;8.63;5.03;;;;;;;;;;4954857;29;20043;-78
2022/07/03 11:55:46;;;;;;;6.10;5.20;;;;;;;;;;4955791;29;20047;-79
2022/07/03 11:58:49;;;;;;;9.30;5.22;;;;;;;;;;4955699;29;20485;-80
2022/07/03 12:01:38;;;;;;;5.95;5.25;;;;;;;;;;4955674;29;20489;-79
2022/07/03 12:04:23;;;;;;;8.68;5.50;;;;;;;;;;4955235;29;20043;-78
2022/07/03 12:07:09;;;;;;;8.73;5.18;;;;;;;;;;4955354;29;20047;-80
2022/07/03 12:09:54;;;;;;;9.15;5.20;;;;;;;;;;4955462;29;20047;-81
2022/07/03 12:12:40;;;;;;;5.82;4.72;;;;;;;;;;4954835;29;20477;-80
2022/07/03 12:15:25;;;;;;;7.78;4.65;;;;;;;;;;4955454;29;20389;-79
2022/07/03 12:18:12;;;;;;;8.68;5.03;;;;;;;;;;4961211;29;20047;-81
2022/07/03 12:21:04;;;;;;;6.63;4.70;;;;;;;;;;4961657;28;20043;-80
2022/07/03 12:23:58;;;;;;;8.20;5.35;;;;;;;;;;4955059;29;20493;-80
2022/07/03 12:26:44;;;;;;;7.05;4.85;;;;;;;;;;4962053;28;20039;-80
2022/07/03 12:29:31;;;;;;;14.50;10.38;;;;;;;;;;4955142;29;20047;-79
2022/07/03 12:32:17;;;;;;;12.38;7.90;;;;;;;;;;4954886;29;20039;-77
2022/07/03 12:35:03;;;;;;;11.18;6.38;;;;;;;;;;4955371;29;20044;-80
2022/07/03 12:37:48;;;;;;;7.28;4.85;;;;;;;;;;4961265;29;20404;-79
2022/07/03 12:40:34;;;;;;;6.95;5.38;;;;;;;;;;4955150;29;20044;-79
2022/07/03 12:43:19;;;;;;;20.73;16.55;;;;;;;;;;4954607;29;20047;-79
2022/07/03 12:46:26;;;;;;;13.27;8.38;;;;;;;;;;4955014;29;20047;-80
2022/07/03 12:49:12;;;;;;;8.60;4.88;;;;;;;;;;4954698;29;20043;-79
2022/07/03 12:51:57;;;;;;;13.15;5.32;;;;;;;;;;4955057;29;20047;-80
2022/07/03 12:54:43;;;;;;;9.52;4.65;;;;;;;;;;4954691;29;20051;-79
2022/07/03 13:00:43;;;;;;;12.02;4.72;;;;;;;;;;4954744;29;20043;-79
2022/07/03 13:03:35;;;;;;;13.30;8.50;;;;;;;;;;4955567;28;20054;-80
2022/07/03 13:06:22;;;;;;;5.82;4.47;;;;;;;;;;4957985;29;20039;-81
2022/07/03 13:09:11;;;;;;;10.65;5.97;;;;;;;;;;4958369;29;20055;-80
2022/07/03 13:11:56;;;;;;;6.88;4.72;;;;;;;;;;4958093;29;20047;-81
2022/07/03 13:14:54;;;;;;;10.60;4.75;;;;;;;;;;4958034;29;20039;-81
2022/07/03 13:18:11;;;;;;;8.32;4.63;;;;;;;;;;4958126;29;20047;-79
2022/07/03 13:20:56;;;;;;;8.48;4.35;;;;;;;;;;4953717;29;20043;-80
2022/07/03 13:23:42;;;;;;;5.45;4.15;;;;;;;;;;4958031;29;20047;-80
2022/07/03 13:26:28;;;;;;;14.40;8.98;;;;;;;;;;4957953;29;20493;-81
2022/07/03 13:29:13;;;;;;;7.50;4.97;;;;;;;;;;4957102;29;20047;-82
2022/07/03 13:31:59;;;;;;;11.88;4.45;;;;;;;;;;4958175;29;20043;-82
2022/07/03 13:34:44;;;;;;;7.30;4.65;;;;;;;;;;4957699;29;20043;-81
2022/07/03 13:37:30;;;;;;;8.57;4.40;;;;;;;;;;4957872;29;20047;-80
2022/07/03 13:40:16;;;;;;;7.00;4.25;;;;;;;;;;4957822;29;20047;-83
2022/07/03 13:43:01;;;;;;;6.95;4.78;;;;;;;;;;4957326;29;20059;-83
2022/07/03 13:45:47;;;;;;;8.00;4.80;;;;;;;;;;4957595;29;20043;-82
2022/07/03 13:48:32;;;;;;;7.40;4.50;;;;;;;;;;4957663;29;20043;-81
2022/07/03 13:51:21;;;;;;;7.05;5.00;;;;;;;;;;4943068;29;20237;-81
2022/07/03 13:54:07;;;;;;;7.55;4.38;;;;;;;;;;4957518;29;20047;-84
2022/07/03 13:56:52;;;;;;;7.28;4.82;;;;;;;;;;4963892;28;20047;-83
2022/07/03 13:59:38;;;;;;;7.60;4.70;;;;;;;;;;4957342;29;20468;-81
2022/07/03 14:02:25;;;;;;;5.95;4.40;;;;;;;;;;4936237;28;20043;-81
2022/07/03 14:05:10;;;;;;;7.32;4.72;;;;;;;;;;4956313;29;20043;-79
2022/07/03 14:07:55;;;;;;;11.32;4.90;;;;;;;;;;4956902;29;20043;-81
2022/07/03 14:10:41;;;;;;;24.45;14.07;;;;;;;;;;4957342;29;20051;-83
2022/07/03 14:13:27;;;;;;;17.60;10.93;;;;;;;;;;4956885;29;20043;-83
2022/07/03 14:16:12;;;;;;;6.85;4.40;;;;;;;;;;4956823;29;20043;-84
2022/07/03 14:18:58;;;;;;;10.80;4.75;;;;;;;;;;4957166;29;20051;-81
2022/07/03 14:21:45;;;;;;;11.70;5.00;;;;;;;;;;4956294;29;20047;-80
2022/07/03 14:24:30;;;;;;;8.65;5.20;;;;;;;;;;4956632;29;20052;-81
2022/07/03 14:33:25;;;;;;;8.88;4.60;;;;;;;;;;4956203;29;20059;-81
2022/07/03 14:36:10;;;;;;;8.30;4.40;;;;;;;;;;4956287;29;20039;-81
2022/07/03 14:38:56;;;;;;;8.27;3.95;;;;;;;;;;4955352;29;20055;-81
2022/07/03 14:41:42;;;;;;;8.40;5.85;;;;;;;;;;4956076;29;20396;-81
2022/07/03 14:44:27;;;;;;;5.45;4.60;;;;;;;;;;4943579;29;20493;-81
2022/07/03 14:47:12;;;;;;;8.05;4.80;;;;;;;;;;4937198;29;20051;-80
2022/07/03 14:49:57;;;;;;;7.35;4.60;;;;;;;;;;4937240;29;20073;-80
2022/07/03 14:52:43;;;;;;;8.60;7.18;;;;;;;;;;4936910;29;20047;-79
2022/07/03 14:55:35;;;;;;;6.03;4.53;;;;;;;;;;4937164;29;20040;-80
2022/07/03 14:58:23;;;;;;;7.03;4.38;;;;;;;;;;4936829;29;20047;-80
2022/07/03 15:01:10;;;;;;;7.47;4.80;;;;;;;;;;4936913;29;20047;-80
2022/07/03 15:04:00;;;;;;;6.93;4.47;;;;;;;;;;4937178;29;20051;-79
2022/07/03 15:06:48;;;;;;;7.15;4.35;;;;;;;;;;4936331;29;20040;-80
2022/07/03 15:09:38;;;;;;;7.72;4.65;;;;;;;;;;4943166;29;20048;-81
2022/07/03 15:12:27;;;;;;;11.82;4.40;;;;;;;;;;4936870;29;20410;-80
2022/07/03 15:15:15;;;;;;;11.63;4.90;;;;;;;;;;4928873;29;20035;-80
2022/07/03 15:18:02;;;;;;;9.98;5.00;;;;;;;;;;4936798;29;20044;-82
2022/07/03 15:20:51;;;;;;;10.95;6.55;;;;;;;;;;4936687;29;20047;-81
2022/07/03 15:23:36;;;;;;;5.63;4.50;;;;;;;;;;4936474;29;20044;-81
2022/07/03 15:26:23;;;;;;;7.15;4.25;;;;;;;;;;4935463;29;20043;-81
2022/07/03 15:29:09;;;;;;;10.70;4.60;;;;;;;;;;4936721;29;20437;-81
2022/07/03 15:32:01;;;;;;;5.88;4.38;;;;;;;;;;4942860;29;20043;-79
2022/07/03 15:34:47;;;;;;;10.20;4.70;;;;;;;;;;4936486;29;20035;-80
2022/07/03 15:38:02;;;;;;;11.43;5.45;;;;;;;;;;4936651;29;20047;-80
2022/07/03 15:40:57;;;;;;;8.02;5.43;;;;;;;;;;4936288;29;20043;-79
2022/07/03 15:43:58;;;;;;;7.80;4.97;;;;;;;;;;4950006;29;20489;-80
2022/07/03 15:47:07;;;;;;;6.88;4.85;;;;;;;;;;4955421;29;20043;-82
2022/07/03 15:49:58;;;;;;;10.15;4.95;;;;;;;;;;4955855;29;20051;-80
2022/07/03 15:52:48;;;;;;;8.20;4.40;;;;;;;;;;4955421;29;20043;-80
2022/07/03 15:55:41;;;;;;;10.02;5.88;;;;;;;;;;4955448;29;20043;-80
2022/07/03 15:58:30;;;;;;;8.27;5.10;;;;;;;;;;4955409;29;20493;-81
2022/07/03 16:04:28;;;;;;;8.90;6.43;;;;;;;;;;4954328;29;20043;-80
2022/07/03 16:07:15;;;;;;;7.82;5.25;;;;;;;;;;4959725;29;20051;-80
2022/07/03 16:10:02;;;;;;;8.40;5.18;;;;;;;;;;4955196;29;20043;-80
2022/07/03 16:12:49;;;;;;;6.00;4.85;;;;;;;;;;4955268;29;20046;-80
2022/07/03 16:15:40;;;;;;;6.95;4.97;;;;;;;;;;4954869;29;20385;-81
2022/07/03 16:18:27;;;;;;;8.25;4.93;;;;;;;;;;4946056;29;20397;-81
2022/07/03 16:21:14;;;;;;;10.50;5.95;;;;;;;;;;4955478;29;20047;-81
2022/07/03 16:23:59;;;;;;;11.55;5.10;;;;;;;;;;4955310;29;20043;-81
2022/07/03 16:26:45;;;;;;;18.17;9.98;;;;;;;;;;4955042;29;20047;-81
2022/07/03 16:29:30;;;;;;;9.20;5.32;;;;;;;;;;4955391;29;20051;-81
2022/07/03 16:32:20;;;;;;;31.80;22.90;;;;;;;;;;4955146;29;20474;-80
2022/07/03 16:35:10;;;;;;;10.23;5.40;;;;;;;;;;4955072;29;20035;-81
2022/07/03 16:38:02;;;;;;;10.85;8.15;;;;;;;;;;4957437;28;20047;-81
2022/07/03 16:40:48;;;;;;;18.75;13.55;;;;;;;;;;4958426;29;20482;-80
2022/07/03 16:43:39;;;;;;;27.70;19.60;;;;;;;;;;4958408;29;20044;-81
2022/07/03 16:46:26;;;;;;;10.38;7.60;;;;;;;;;;4964625;28;20051;-81
2022/07/03 16:49:12;;;;;;;5.38;4.63;;;;;;;;;;4950873;28;20051;-81
2022/07/03 16:52:04;;;;;;;10.77;6.80;;;;;;;;;;4958437;29;20485;-80
2022/07/03 16:54:49;;;;;;;13.35;7.05;;;;;;;;;;4958439;29;20039;-81
2022/07/03 16:57:43;;;;;;;11.88;5.57;;;;;;;;;;4958332;29;20047;-80
2022/07/03 17:00:29;;;;;;;9.00;4.40;;;;;;;;;;4958649;29;20047;-81
2022/07/03 17:03:17;;;;;;;11.30;6.30;;;;;;;;;;4958463;29;20079;-81
2022/07/03 17:06:04;;;;;;;7.15;4.30;;;;;;;;;;4957818;29;20478;-80
2022/07/03 17:08:49;;;;;;;8.05;4.07;;;;;;;;;;4958196;29;20397;-80
2022/07/03 17:11:35;;;;;;;12.15;4.30;;;;;;;;;;4957975;29;20043;-80